Blancagrande, Argentina
Current Conditions -  °F | °C
As of 7:00 AM on Wednesday 26 Nov 2014 (Local Time) from SAEZ Reporting Station
Haze Haze  
Wind Chill: 15°   Ceiling: Unl
Heat Index: 15°   Visibility: 1.8mi
Dew Point: 12°   Wind: 2mph
Humidity: 82%   Direction: NA
Pressure: 29.97"   Gusts: NA
Location:  36.54°S, 60.89°W
Report Text: SAEZ 261000Z VRB02KT 3000 BR NSC 15/12 Q1015
Loading
Personal Weather Stations






























Interactive Weather Map New forecast layout! Learn more

10-Day Weather Forecast

Advertisements
Track Severe Weather on mobile